createdAt,value
2018-03-21T00:02:13.140Z,6.50
2018-03-21T00:05:16.780Z,5.85
2018-03-21T00:08:21.060Z,5.12
2018-03-21T00:11:24.363Z,5.85
2018-03-21T00:14:27.841Z,3.58
2018-03-21T00:17:31.184Z,5.43
2018-03-21T00:20:34.488Z,14.30
2018-03-21T00:23:38.845Z,4.07
2018-03-21T00:26:42.132Z,6.47
2018-03-21T00:29:47.899Z,6.28
2018-03-21T00:32:51.240Z,4.78
2018-03-21T00:35:54.630Z,5.60
2018-03-21T00:38:57.918Z,3.85
2018-03-21T00:42:02.355Z,5.82
2018-03-21T00:45:05.858Z,2.20
2018-03-21T00:48:09.223Z,8.43
2018-03-21T00:51:12.545Z,9.15
2018-03-21T00:54:15.831Z,2.30
2018-03-21T00:57:19.104Z,3.30
2018-03-21T01:00:22.521Z,10.88
2018-03-21T01:03:25.793Z,5.70
2018-03-21T01:06:29.943Z,6.40
2018-03-21T01:09:33.230Z,3.75
2018-03-21T01:12:36.516Z,3.33
2018-03-21T01:15:40.480Z,6.50
2018-03-21T01:18:44.644Z,8.68
2018-03-21T01:21:47.892Z,2.75
2018-03-21T01:24:51.514Z,4.43
2018-03-21T01:27:54.853Z,3.50
2018-03-21T01:30:58.242Z,10.30
2018-03-21T01:34:01.898Z,5.00
2018-03-21T01:37:05.493Z,1.00
2018-03-21T01:40:08.844Z,1.35
2018-03-21T01:43:12.412Z,4.07
2018-03-21T01:46:15.740Z,2.40
2018-03-21T01:49:19.072Z,1.60
2018-03-21T01:52:22.339Z,1.77
2018-03-21T01:55:25.662Z,6.65
2018-03-21T01:58:28.957Z,3.55
2018-03-21T02:01:32.252Z,2.22
2018-03-21T02:04:35.597Z,3.45
2018-03-21T02:07:39.644Z,2.08
2018-03-21T02:10:42.964Z,1.42
2018-03-21T02:13:50.064Z,1.77
2018-03-21T02:16:54.203Z,2.00
2018-03-21T02:19:57.550Z,4.05
2018-03-21T02:23:02.035Z,1.55
2018-03-21T02:26:06.102Z,8.73
2018-03-21T02:29:09.493Z,1.90
2018-03-21T02:32:12.801Z,1.40
2018-03-21T02:35:16.126Z,0.70
2018-03-21T02:38:19.725Z,2.03
2018-03-21T02:41:23.840Z,4.05
2018-03-21T02:44:28.274Z,1.90
2018-03-21T02:47:32.375Z,0.93
2018-03-21T02:50:35.660Z,2.12
2018-03-21T02:53:39.492Z,1.30
2018-03-21T02:56:42.874Z,2.08
2018-03-21T02:59:46.232Z,2.75
2018-03-21T03:02:49.532Z,1.70
2018-03-21T03:05:53.726Z,1.90
2018-03-21T03:08:57.828Z,2.15
2018-03-21T03:12:01.186Z,1.33
2018-03-21T03:15:04.460Z,3.80
2018-03-21T03:18:08.133Z,2.08
2018-03-21T03:21:11.421Z,2.33
2018-03-21T03:24:15.128Z,4.30
2018-03-21T03:27:18.443Z,2.50
2018-03-21T03:30:22.242Z,3.67
2018-03-21T03:33:25.494Z,2.00
2018-03-21T03:36:28.818Z,2.42
2018-03-21T03:39:32.201Z,1.67
2018-03-21T03:42:35.840Z,1.70
2018-03-21T03:45:39.924Z,0.80
2018-03-21T03:48:43.313Z,2.78
2018-03-21T03:51:46.586Z,2.22
2018-03-21T03:54:50.701Z,1.90
2018-03-21T03:57:53.968Z,1.15
2018-03-21T04:00:58.277Z,1.98
2018-03-21T04:04:02.322Z,0.80
2018-03-21T04:07:05.635Z,1.75
2018-03-21T04:10:08.934Z,1.83
2018-03-21T04:13:12.771Z,2.97
2018-03-21T04:16:17.202Z,1.35
2018-03-21T04:19:20.008Z,1.33
2018-03-21T04:22:23.336Z,2.28
2018-03-21T04:25:27.137Z,4.82
2018-03-21T04:28:30.488Z,0.65
2018-03-21T04:31:33.900Z,2.22
2018-03-21T04:34:37.241Z,0.95
2018-03-21T04:37:40.599Z,1.52
2018-03-21T04:40:44.696Z,1.20
2018-03-21T04:43:47.989Z,1.65
2018-03-21T04:46:51.329Z,0.30
2018-03-21T04:49:55.185Z,1.67
2018-03-21T04:52:58.521Z,3.40
2018-03-21T04:56:01.886Z,2.37
2018-03-21T04:59:05.184Z,1.75
2018-03-21T05:02:08.481Z,7.30
2018-03-21T05:05:12.598Z,3.92
2018-03-21T05:08:16.258Z,3.37
2018-03-21T05:11:19.592Z,3.65
2018-03-21T05:14:22.897Z,1.23
2018-03-21T05:17:26.420Z,1.90
2018-03-21T05:20:29.706Z,2.10
2018-03-21T05:23:33.196Z,6.55
2018-03-21T05:26:36.484Z,1.52
2018-03-21T05:29:39.765Z,2.12
2018-03-21T05:32:43.055Z,3.65
2018-03-21T05:35:46.387Z,2.75
2018-03-21T05:38:49.700Z,5.03
2018-03-21T05:41:53.012Z,2.20
2018-03-21T05:44:57.214Z,2.80
2018-03-21T05:48:00.556Z,4.43
2018-03-21T05:51:03.868Z,1.12
2018-03-21T05:54:07.330Z,1.67
2018-03-21T05:57:11.416Z,1.73
2018-03-21T06:00:14.812Z,2.17
2018-03-21T06:03:18.961Z,10.40
2018-03-21T06:06:23.042Z,7.43
2018-03-21T06:09:26.920Z,2.85
2018-03-21T06:12:30.639Z,7.82
2018-03-21T06:15:34.013Z,6.35
2018-03-21T06:18:37.438Z,9.02
2018-03-21T06:21:40.757Z,6.30
2018-03-21T06:24:44.218Z,7.85
2018-03-21T06:27:47.521Z,11.43
2018-03-21T06:30:50.894Z,15.45
2018-03-21T06:33:54.941Z,13.60
2018-03-21T06:36:58.276Z,11.77
2018-03-21T06:40:02.390Z,11.57
2018-03-21T06:43:05.803Z,11.38
2018-03-21T06:46:09.953Z,9.07
2018-03-21T06:49:13.266Z,12.00
2018-03-21T06:52:17.330Z,9.67
2018-03-21T06:55:21.453Z,11.53
2018-03-21T06:58:24.751Z,11.33
2018-03-21T07:01:28.061Z,10.93
2018-03-21T07:04:32.078Z,10.83
2018-03-21T07:07:35.389Z,9.13
2018-03-21T07:10:38.916Z,9.87
2018-03-21T07:13:54.179Z,10.50
2018-03-21T07:16:57.453Z,10.77
2018-03-21T07:20:00.950Z,10.03
2018-03-21T07:23:04.395Z,10.73
2018-03-21T07:26:08.572Z,13.47
2018-03-21T07:29:11.874Z,14.23
2018-03-21T07:32:15.260Z,13.63
2018-03-21T07:35:18.984Z,10.53
2018-03-21T07:38:22.295Z,11.07
2018-03-21T07:41:25.727Z,11.47
2018-03-21T07:44:29.034Z,9.83
2018-03-21T07:47:32.361Z,10.07
2018-03-21T07:50:35.688Z,11.00
2018-03-21T07:53:39.066Z,11.87
2018-03-21T07:56:43.152Z,10.90
2018-03-21T07:59:47.289Z,19.87
2018-03-21T08:02:51.435Z,10.20
2018-03-21T08:05:54.713Z,9.27
2018-03-21T08:08:58.111Z,8.07
2018-03-21T08:12:01.444Z,9.13
2018-03-21T08:15:04.752Z,11.30
2018-03-21T08:18:08.045Z,11.23
2018-03-21T08:21:11.345Z,13.10
2018-03-21T08:24:14.662Z,11.47
2018-03-21T08:27:17.957Z,12.83
2018-03-21T08:30:22.034Z,10.23
2018-03-21T08:33:25.345Z,12.87
2018-03-21T08:36:28.641Z,14.20
2018-03-21T08:39:32.712Z,19.67
2018-03-21T08:42:36.059Z,12.30
2018-03-21T08:45:39.351Z,19.77
2018-03-21T08:48:42.635Z,14.07
2018-03-21T08:51:45.936Z,13.27
2018-03-21T08:54:49.236Z,14.73
2018-03-21T08:57:52.582Z,20.27
2018-03-21T09:00:55.835Z,9.20
2018-03-21T09:03:59.164Z,8.20
2018-03-21T09:07:04.107Z,10.60
2018-03-21T09:10:07.397Z,9.60
2018-03-21T09:13:11.467Z,6.73
2018-03-21T09:16:15.316Z,4.50
2018-03-21T09:19:19.422Z,4.77
2018-03-21T09:22:22.743Z,7.57
2018-03-21T09:25:26.290Z,8.33
2018-03-21T09:28:29.863Z,5.60
2018-03-21T09:31:33.301Z,5.83
2018-03-21T09:34:36.631Z,4.50
2018-03-21T09:37:39.925Z,4.93
2018-03-21T09:40:43.220Z,4.57
2018-03-21T09:43:46.507Z,5.03
2018-03-21T09:46:50.628Z,6.10
2018-03-21T09:49:54.233Z,3.67
2018-03-21T09:52:57.607Z,5.50
2018-03-21T09:56:01.101Z,3.47
2018-03-21T09:59:04.429Z,5.27
2018-03-21T10:02:07.740Z,4.87
2018-03-21T10:05:11.119Z,3.47
2018-03-21T10:08:14.475Z,5.27
2018-03-21T10:11:17.734Z,4.83
2018-03-21T10:14:21.836Z,3.13
2018-03-21T10:17:25.177Z,6.33
2018-03-21T10:20:28.652Z,6.50
2018-03-21T10:23:32.753Z,4.67
2018-03-21T10:26:36.049Z,5.10
2018-03-21T10:29:39.290Z,3.83
2018-03-21T10:32:42.632Z,4.43
2018-03-21T10:35:45.940Z,3.03
2018-03-21T10:38:50.044Z,3.50
2018-03-21T10:41:54.105Z,3.30
2018-03-21T10:44:57.485Z,3.63
2018-03-21T10:48:01.593Z,3.50
2018-03-21T10:51:05.918Z,4.47
2018-03-21T10:54:09.380Z,3.47
2018-03-21T10:57:13.385Z,7.07
2018-03-21T11:00:17.472Z,5.00
2018-03-21T11:03:20.807Z,3.80
2018-03-21T11:06:24.108Z,3.10
2018-03-21T11:09:27.451Z,3.80
2018-03-21T11:12:32.023Z,11.20
2018-03-21T11:15:35.284Z,2.90
2018-03-21T11:18:38.578Z,3.07
2018-03-21T11:21:41.868Z,5.13
2018-03-21T11:24:45.922Z,3.00
2018-03-21T11:27:49.242Z,3.43
2018-03-21T11:30:52.571Z,5.33
2018-03-21T11:33:56.864Z,5.83
2018-03-21T11:37:02.393Z,5.63
2018-03-21T11:40:05.690Z,5.43
2018-03-21T11:43:09.026Z,5.13
2018-03-21T11:46:12.349Z,3.83
2018-03-21T11:49:15.681Z,4.93
2018-03-21T11:52:19.013Z,4.90
2018-03-21T11:55:22.339Z,5.17
2018-03-21T11:58:25.681Z,3.70
2018-03-21T12:01:29.028Z,3.53
2018-03-21T12:04:32.322Z,4.20
2018-03-21T12:07:36.011Z,2.97
2018-03-21T12:10:40.069Z,3.78
2018-03-21T12:13:43.344Z,5.57
2018-03-21T12:16:47.343Z,8.15
2018-03-21T12:19:51.319Z,14.02
2018-03-21T12:22:54.628Z,3.25
2018-03-21T12:25:57.897Z,7.05
2018-03-21T12:29:01.233Z,6.15
2018-03-21T12:32:04.485Z,5.05
2018-03-21T12:35:07.841Z,10.70
2018-03-21T12:38:11.909Z,5.78
2018-03-21T12:41:15.535Z,5.80
2018-03-21T12:44:18.793Z,6.78
2018-03-21T12:47:22.077Z,6.22
2018-03-21T12:50:25.376Z,12.57
2018-03-21T12:53:29.453Z,5.37
2018-03-21T12:56:33.639Z,2.62
2018-03-21T12:59:37.012Z,7.03
2018-03-21T13:02:40.332Z,7.43
2018-03-21T13:05:43.626Z,2.40
2018-03-21T13:08:46.903Z,3.20
2018-03-21T13:11:50.184Z,5.68
2018-03-21T13:14:53.525Z,4.07
2018-03-21T13:17:56.852Z,3.12
2018-03-21T13:21:01.025Z,6.55
2018-03-21T13:24:04.405Z,3.75
2018-03-21T13:27:07.838Z,2.45
2018-03-21T13:30:11.260Z,4.22
2018-03-21T13:33:14.491Z,3.08
2018-03-21T13:36:17.859Z,2.08
2018-03-21T13:39:21.176Z,7.45
2018-03-21T13:42:25.431Z,9.65
2018-03-21T13:45:28.678Z,4.12
2018-03-21T13:48:31.953Z,6.03
2018-03-21T13:51:35.260Z,3.62
2018-03-21T13:54:39.341Z,2.95
2018-03-21T13:57:42.633Z,1.92
2018-03-21T14:00:46.349Z,3.33
2018-03-21T14:03:49.778Z,4.12
2018-03-21T14:06:53.166Z,6.43
2018-03-21T14:09:56.515Z,3.05
2018-03-21T14:12:59.829Z,3.92
2018-03-21T14:16:03.147Z,2.80
2018-03-21T14:19:06.478Z,3.50
2018-03-21T14:22:09.787Z,5.45
2018-03-21T14:25:13.101Z,5.32
2018-03-21T14:28:16.340Z,4.05
2018-03-21T14:31:19.684Z,5.15
2018-03-21T14:34:23.041Z,3.65
2018-03-21T14:37:26.369Z,3.05
2018-03-21T14:40:29.821Z,3.70
2018-03-21T14:43:33.173Z,3.22
2018-03-21T14:46:36.522Z,5.50
2018-03-21T14:49:39.802Z,3.35
2018-03-21T14:52:43.121Z,4.75
2018-03-21T14:55:46.451Z,9.13
2018-03-21T14:58:49.716Z,3.05
2018-03-21T15:01:52.975Z,6.90
2018-03-21T15:04:56.312Z,3.17
2018-03-21T15:07:59.607Z,3.40
2018-03-21T15:11:02.932Z,3.80
2018-03-21T15:14:06.984Z,5.70
2018-03-21T15:17:10.277Z,4.90
2018-03-21T15:20:13.554Z,3.60
2018-03-21T15:23:16.913Z,3.70
2018-03-21T15:26:20.166Z,3.05
2018-03-21T15:29:23.493Z,5.53
2018-03-21T15:32:26.826Z,3.97
2018-03-21T15:35:30.892Z,3.42
2018-03-21T15:38:34.214Z,8.52
2018-03-21T15:41:37.505Z,4.22
2018-03-21T15:44:40.852Z,5.75
2018-03-21T15:47:44.146Z,5.18
2018-03-21T15:50:47.475Z,8.45
2018-03-21T15:53:50.754Z,4.80
2018-03-21T15:56:54.888Z,4.70
2018-03-21T15:59:58.185Z,5.47
2018-03-21T16:03:01.449Z,5.47
2018-03-21T16:06:04.737Z,5.68
2018-03-21T16:09:07.975Z,6.97
2018-03-21T16:12:11.295Z,8.95
2018-03-21T16:15:14.619Z,6.30
2018-03-21T16:18:17.945Z,5.93
2018-03-21T16:21:21.229Z,6.43
2018-03-21T16:24:24.511Z,7.18
2018-03-21T16:27:28.362Z,6.40
2018-03-21T16:30:31.815Z,5.80
2018-03-21T16:33:35.891Z,5.55
2018-03-21T16:36:39.950Z,6.32
2018-03-21T16:39:44.046Z,10.40
2018-03-21T16:42:47.492Z,6.90
2018-03-21T16:45:50.813Z,13.98
2018-03-21T16:48:54.921Z,8.73
2018-03-21T16:51:58.190Z,6.87
2018-03-21T16:55:01.536Z,8.50
2018-03-21T16:58:04.830Z,11.43
2018-03-21T17:01:08.091Z,6.90
2018-03-21T17:04:11.433Z,10.82
2018-03-21T17:07:14.736Z,8.95
2018-03-21T17:10:18.950Z,3.45
2018-03-21T17:13:22.266Z,12.63
2018-03-21T17:16:26.406Z,7.43
2018-03-21T17:19:29.834Z,9.65
2018-03-21T17:22:33.176Z,11.07
2018-03-21T17:25:37.285Z,10.30
2018-03-21T17:28:41.360Z,6.50
2018-03-21T17:31:44.982Z,7.57
2018-03-21T17:34:49.038Z,10.63
2018-03-21T17:37:53.128Z,8.63
2018-03-21T17:40:56.390Z,6.53
2018-03-21T17:43:59.690Z,8.57
2018-03-21T17:47:02.963Z,7.05
2018-03-21T17:50:06.218Z,5.10
2018-03-21T17:53:09.457Z,5.97
2018-03-21T17:56:12.773Z,12.48
2018-03-21T17:59:16.045Z,5.43
2018-03-21T18:02:19.365Z,3.92
2018-03-21T18:05:22.679Z,12.45
2018-03-21T18:08:28.136Z,7.70
2018-03-21T18:11:31.403Z,10.73
2018-03-21T18:14:34.716Z,6.90
2018-03-21T18:17:38.014Z,8.40
2018-03-21T18:20:41.310Z,9.48
2018-03-21T18:23:44.572Z,9.63
2018-03-21T18:26:47.995Z,6.10
2018-03-21T18:29:51.272Z,11.88
2018-03-21T18:32:54.534Z,7.20
2018-03-21T18:35:57.839Z,5.30
2018-03-21T18:39:01.935Z,15.48
2018-03-21T18:42:05.273Z,11.12
2018-03-21T18:45:08.610Z,8.63
2018-03-21T18:48:12.017Z,9.35
2018-03-21T18:51:15.328Z,5.82
2018-03-21T18:54:18.590Z,6.20
2018-03-21T18:57:21.888Z,8.77
2018-03-21T19:00:25.195Z,11.80
2018-03-21T19:03:28.634Z,6.28
2018-03-21T19:06:31.940Z,8.65
2018-03-21T19:09:38.255Z,7.65
2018-03-21T19:12:41.541Z,12.50
2018-03-21T19:15:45.245Z,20.48
2018-03-21T19:18:48.538Z,12.40
2018-03-21T19:21:52.188Z,17.77
2018-03-21T19:24:55.539Z,33.08
2018-03-21T19:27:58.918Z,6.53
2018-03-21T19:31:02.332Z,5.15
2018-03-21T19:34:06.502Z,4.53
2018-03-21T19:37:10.413Z,8.00
2018-03-21T19:40:14.531Z,11.05
2018-03-21T19:43:17.863Z,9.50
2018-03-21T19:46:21.226Z,18.42
2018-03-21T19:49:26.016Z,12.80
2018-03-21T19:52:29.424Z,13.90
2018-03-21T19:55:32.792Z,10.80
2018-03-21T19:58:36.888Z,5.55
2018-03-21T20:01:40.240Z,5.70
2018-03-21T20:04:43.673Z,7.65
2018-03-21T20:07:48.090Z,7.93
2018-03-21T20:10:51.421Z,3.85
2018-03-21T20:13:54.700Z,5.70
2018-03-21T20:16:57.997Z,4.87
2018-03-21T20:20:02.101Z,5.43
2018-03-21T20:23:05.461Z,5.28
2018-03-21T20:26:08.804Z,6.45
2018-03-21T20:29:12.143Z,11.15
2018-03-21T20:32:15.449Z,4.70
2018-03-21T20:35:18.795Z,6.65
2018-03-21T20:38:22.137Z,4.07
2018-03-21T20:41:25.527Z,10.48
2018-03-21T20:44:28.798Z,9.57
2018-03-21T20:47:32.851Z,11.55
2018-03-21T20:50:36.232Z,6.40
2018-03-21T20:53:39.583Z,8.80
2018-03-21T20:56:42.820Z,5.97
2018-03-21T20:59:46.145Z,5.43
2018-03-21T21:02:49.495Z,5.15
2018-03-21T21:05:52.884Z,5.90
2018-03-21T21:08:56.924Z,5.12
2018-03-21T21:12:00.221Z,5.78
2018-03-21T21:15:03.550Z,8.73
2018-03-21T21:18:06.821Z,6.57
2018-03-21T21:21:10.110Z,6.85
2018-03-21T21:24:14.180Z,6.07
2018-03-21T21:27:17.628Z,12.93
2018-03-21T21:30:21.077Z,5.95
2018-03-21T21:33:24.370Z,9.77
2018-03-21T21:36:27.665Z,6.55
2018-03-21T21:39:30.966Z,6.55
2018-03-21T21:42:34.264Z,6.82
2018-03-21T21:45:37.556Z,4.62
2018-03-21T21:48:41.177Z,7.55
2018-03-21T21:51:44.532Z,9.57
2018-03-21T21:54:47.833Z,13.18
2018-03-21T21:57:52.045Z,7.40
2018-03-21T22:00:55.399Z,10.63
2018-03-21T22:03:59.507Z,5.05
2018-03-21T22:07:02.783Z,6.15
2018-03-21T22:10:06.203Z,10.05
2018-03-21T22:13:10.310Z,9.07
2018-03-21T22:16:13.578Z,10.85
2018-03-21T22:19:16.870Z,7.03
2018-03-21T22:22:20.167Z,15.30
2018-03-21T22:25:23.556Z,8.70
2018-03-21T22:28:26.940Z,6.15
2018-03-21T22:31:30.276Z,11.68
2018-03-21T22:34:33.629Z,5.53
2018-03-21T22:37:36.928Z,15.98
2018-03-21T22:40:40.217Z,31.15
2018-03-21T22:43:43.536Z,21.27
2018-03-21T22:46:46.918Z,10.35
2018-03-21T22:49:50.234Z,12.15
2018-03-21T22:52:53.516Z,9.98
2018-03-21T22:55:56.848Z,5.62
2018-03-21T22:59:00.099Z,9.27
2018-03-21T23:02:03.460Z,10.50
2018-03-21T23:05:06.801Z,8.55
2018-03-21T23:08:10.208Z,9.27
2018-03-21T23:11:14.203Z,6.22
2018-03-21T23:14:18.595Z,6.95
2018-03-21T23:17:21.975Z,13.73
2018-03-21T23:20:25.373Z,9.23
2018-03-21T23:23:28.835Z,7.18
2018-03-21T23:26:32.221Z,9.43
2018-03-21T23:29:37.119Z,5.78
2018-03-21T23:32:41.228Z,9.35
2018-03-21T23:35:44.774Z,7.70
2018-03-21T23:38:48.095Z,8.68
2018-03-21T23:41:52.262Z,9.63
2018-03-21T23:44:55.563Z,6.97
2018-03-21T23:47:59.680Z,7.03
2018-03-21T23:51:03.271Z,7.03
2018-03-21T23:54:06.558Z,8.13
2018-03-21T23:57:09.890Z,9.80
